This is the latest recevied weather packets stored in our database for station/object EMGATE. If no packets are shown the sender has not sent any weather packets the latest 10 day(s).
| Time | Temp. | Humidity | Pressure | Rain* | Wind** | Luminosity | Snow |
|---|---|---|---|---|---|---|---|
| 1777127046 | 10.56° C | 53% | 1020.4 hPa | 0 mm | - | - | - |
| 1777126146 | 10.56° C | 54% | 1020.5 hPa | 0 mm | - | - | - |
| 1777125246 | 10° C | 55% | 1020.6 hPa | 0 mm | - | - | - |
| 1777124346 | 10° C | 54% | 1020.8 hPa | 0 mm | - | - | - |
| 1777123446 | 10° C | 56% | 1020.7 hPa | 0 mm | - | - | - |
| 1777122546 | 8.89° C | 58% | 1020.8 hPa | 0 mm | - | - | - |
| 1777121646 | 8.33° C | 60% | 1020.9 hPa | 0 mm | - | - | - |
| 1777120746 | 7.78° C | 61% | 1020.8 hPa | 0 mm | - | - | - |
| 1777119846 | 7.22° C | 59% | 1020.8 hPa | 0 mm | - | - | - |
| 1777118946 | 6.11° C | 63% | 1020.8 hPa | 0 mm | - | - | - |
| 1777118046 | 5.56° C | 65% | 1020.9 hPa | 0 mm | - | - | - |
| 1777117146 | 5° C | 68% | 1020.9 hPa | 0 mm | - | - | - |
| 1777116246 | 3.89° C | 70% | 1020.8 hPa | 0 mm | - | - | - |
| 1777115346 | 1.67° C | 76% | 1020.7 hPa | 0 mm | - | - | - |
| 1777114446 | 0° C | 80% | 1020.7 hPa | 0 mm | - | - | - |
| 1777113546 | -1.11° C | 82% | 1020.6 hPa | 0 mm | - | - | - |
| 1777112646 | -1.11° C | 81% | 1020.6 hPa | 0 mm | - | - | - |
| 1777111746 | -1.67° C | 81% | 1020.5 hPa | 0 mm | - | - | - |
| 1777110846 | -1.67° C | 80% | 1020.3 hPa | 0 mm | - | - | - |
| 1777109946 | -1.67° C | 80% | 1020.2 hPa | 0 mm | - | - | - |
| 1777109046 | -1.67° C | 78% | 1020.1 hPa | 0 mm | - | - | - |
| 1777108146 | -1.11° C | 76% | 1020 hPa | 0 mm | - | - | - |
| 1777107246 | -0.56° C | 76% | 1019.9 hPa | 0 mm | - | - | - |
| 1777106346 | -0.56° C | 75% | 1019.8 hPa | 0 mm | - | - | - |
| 1777105446 | 0° C | 74% | 1019.7 hPa | 0 mm | - | - | - |
* Rain latest hour (hover to see other rain measurements)
** Current wind speed in m/s (hover to see current wind gust speed)